Weather History for KLCI - October, 2010

Change the Weather History Date:

Tuesday, October 5, 2010

  Actual Average Record
Temperature  
Mean Temperature 58 °F -  
Max Temperature 64 °F 60 °F 82 °F (2007)
Min Temperature 53 °F 42 °F 26 °F (1996)
Degree Days  
Heating Degree Days 6    
Growing Degree Days 8 (Base 50)    
Moisture  
Dew Point 42 °F    
Average Humidity 57    
Maximum Humidity 63    
Minimum Humidity 49    
Precipitation  
Precipitation 0.00 in - - ()
Sea Level Pressure  
Sea Level Pressure 30.10 in    
Wind  
Wind Speed 11 mph (ENE)    
Max Wind Speed 16 mph    
Max Gust Speed 23 mph    
Visibility 10 miles    
Events      
Averages and records for this station are not official NWS values.
T = Trace of Precipitation, MM = Missing Value Source: NWS Daily Summary

Daily Weather History Graph

Daily Weather History Graph

Search for Another Location

Airport or City:

Trip Planner

Search our weather history database for the weather conditions in past years. The results will help you decide how hot, cold, wet, or windy it might be!

Date:

Astronomy

Oct. 05, 2010 Rise Set
Actual Time 6:47 AM EDT 6:19 PM EDT
Civil Twilight 6:19 AM EDT 6:48 PM EDT
Nautical Twilight 5:45 AM EDT 7:21 PM EDT
Astronomical Twilight 5:12 AM EDT 7:54 PM EDT
Moon 4:02 AM EDT (10/5) 4:51 PM EDT (10/5)
Length of Visible Light 12h 29m
Length of Day
11h 31m
Waning Crescent, 7% of the Moon is Illuminated
Oct 5
Waning Crescent
Oct 7
New
Oct 14
First Quarter
Oct 22
Full
Oct 30
Last Quarter

Hourly Weather History & Observations

Time (EDT) Temp. Dew Point Humidity Pressure Visibility Wind Dir Wind Speed Gust Speed Precip Events Conditions
12:15 AM 53.6 °F 39.2 °F 58% 30.15 in 10.0 mi ENE 9.2 mph - N/A   Overcast
12:35 AM 53.6 °F 39.2 °F 58% 30.14 in 10.0 mi NE 9.2 mph - N/A   Overcast
12:55 AM 53.6 °F 39.2 °F 58% 30.14 in 10.0 mi NE 13.8 mph 18.4 mph N/A   Overcast
1:15 AM 53.6 °F 39.2 °F 58% 30.13 in 10.0 mi NE 8.1 mph - N/A   Overcast
1:35 AM 53.6 °F 41.0 °F 62% 30.13 in 10.0 mi NE 8.1 mph - N/A   Overcast
1:55 AM 53.6 °F 39.2 °F 58% 30.13 in 10.0 mi ENE 9.2 mph 17.3 mph N/A   Overcast
2:15 AM 53.6 °F 39.2 °F 58% 30.12 in 10.0 mi ENE 11.5 mph 17.3 mph N/A   Overcast
2:35 AM 53.6 °F 39.2 °F 58% 30.11 in 10.0 mi NE 11.5 mph 19.6 mph N/A   Overcast
2:55 AM 53.6 °F 41.0 °F 62% 30.10 in 10.0 mi NE 12.7 mph 17.3 mph N/A   Overcast
3:15 AM 53.6 °F 41.0 °F 62% 30.10 in 10.0 mi ENE 8.1 mph 16.1 mph N/A   Overcast
3:35 AM 53.6 °F 39.2 °F 58% 30.10 in 10.0 mi ENE 9.2 mph 17.3 mph N/A   Overcast
3:55 AM 53.6 °F 39.2 °F 58% 30.10 in 10.0 mi ENE 9.2 mph 17.3 mph N/A   Overcast
4:15 AM 53.6 °F 39.2 °F 58% 30.11 in 10.0 mi NE 9.2 mph 18.4 mph N/A   Overcast
4:35 AM 53.6 °F 39.2 °F 58% 30.10 in 10.0 mi ENE 12.7 mph 17.3 mph N/A   Mostly Cloudy
4:55 AM 53.6 °F 39.2 °F 58% 30.10 in 10.0 mi NE 11.5 mph - N/A   Mostly Cloudy
5:15 AM 53.6 °F 39.2 °F 58% 30.10 in 10.0 mi ENE 12.7 mph 18.4 mph N/A   Overcast
5:35 AM 53.6 °F 39.2 °F 58% 30.11 in 10.0 mi NE 11.5 mph 16.1 mph N/A   Overcast
5:55 AM 53.6 °F 39.2 °F 58% 30.11 in 10.0 mi NE 11.5 mph 20.7 mph N/A   Overcast
6:15 AM 53.6 °F 39.2 °F 58% 30.11 in 10.0 mi NE 10.4 mph 17.3 mph N/A   Overcast
6:35 AM 53.6 °F 39.2 °F 58% 30.10 in 10.0 mi NE 15.0 mph 20.7 mph N/A   Overcast
6:55 AM 53.6 °F 39.2 °F 58% 30.10 in 10.0 mi NE 11.5 mph 17.3 mph N/A   Overcast
7:15 AM 53.6 °F 41.0 °F 62% 30.10 in 10.0 mi NE 11.5 mph - N/A   Overcast
7:35 AM 53.6 °F 39.2 °F 58% 30.10 in 10.0 mi ENE 15.0 mph 23.0 mph N/A   Mostly Cloudy
7:55 AM 53.6 °F 39.2 °F 58% 30.11 in 10.0 mi ENE 16.1 mph - N/A   Overcast
8:15 AM 55.4 °F 41.0 °F 58% 30.11 in 10.0 mi ENE 13.8 mph 20.7 mph N/A   Overcast
8:35 AM 55.4 °F 41.0 °F 58% 30.12 in 10.0 mi NE 15.0 mph 21.9 mph N/A   Overcast
8:55 AM 55.4 °F 41.0 °F 58% 30.12 in 10.0 mi ENE 12.7 mph 20.7 mph N/A   Overcast
9:15 AM 55.4 °F 41.0 °F 58% 30.13 in 10.0 mi ENE 15.0 mph 19.6 mph N/A   Overcast
9:35 AM 55.4 °F 42.8 °F 63% 30.13 in 10.0 mi NE 13.8 mph 17.3 mph N/A   Overcast
9:55 AM 55.4 °F 42.8 °F 63% 30.13 in 10.0 mi ENE 12.7 mph - N/A   Overcast
10:15 AM 55.4 °F 42.8 °F 63% 30.13 in 10.0 mi NE 9.2 mph - N/A   Overcast
10:35 AM 57.2 °F 42.8 °F 59% 30.13 in 10.0 mi NE 9.2 mph 17.3 mph N/A   Overcast
10:55 AM 57.2 °F 42.8 °F 59% 30.13 in 10.0 mi NE 6.9 mph - N/A   Overcast
11:15 AM 57.2 °F 42.8 °F 59% 30.12 in 10.0 mi ENE 11.5 mph 17.3 mph N/A   Overcast
11:35 AM 57.2 °F 42.8 °F 59% 30.13 in 10.0 mi ENE 11.5 mph 16.1 mph N/A   Overcast
11:55 AM 59.0 °F 42.8 °F 55% 30.12 in 10.0 mi ENE 10.4 mph 16.1 mph N/A   Overcast
12:15 PM 59.0 °F 42.8 °F 55% 30.12 in 10.0 mi ENE 11.5 mph - N/A   Overcast
12:35 PM 60.8 °F 42.8 °F 52% 30.11 in 10.0 mi ENE 10.4 mph - N/A   Overcast
12:55 PM 62.6 °F 44.6 °F 52% 30.10 in 10.0 mi ENE 10.4 mph - N/A   Overcast
1:15 PM 62.6 °F 44.6 °F 52% 30.10 in 10.0 mi ENE 10.4 mph 16.1 mph N/A   Overcast
1:35 PM 62.6 °F 44.6 °F 52% 30.09 in 10.0 mi ENE 10.4 mph - N/A   Overcast
1:55 PM 62.6 °F 44.6 °F 52% 30.08 in 10.0 mi East 13.8 mph - N/A   Overcast
2:15 PM 64.4 °F 44.6 °F 49% 30.07 in 10.0 mi East 13.8 mph - N/A   Overcast
2:35 PM 64.4 °F 44.6 °F 49% 30.07 in 10.0 mi East 11.5 mph - N/A   Overcast
2:55 PM 62.6 °F 44.6 °F 52% 30.07 in 10.0 mi ENE 11.5 mph - N/A   Overcast
3:15 PM 62.6 °F 44.6 °F 52% 30.07 in 10.0 mi ENE 10.4 mph - N/A   Overcast
3:35 PM 62.6 °F 46.4 °F 55% 30.06 in 10.0 mi ENE 9.2 mph 17.3 mph N/A   Overcast
3:55 PM 64.4 °F 46.4 °F 52% 30.05 in 10.0 mi ENE 11.5 mph - N/A   Overcast
4:15 PM 62.6 °F 46.4 °F 55% 30.05 in 10.0 mi ENE 9.2 mph - N/A   Overcast
4:35 PM 62.6 °F 46.4 °F 55% 30.05 in 10.0 mi ENE 9.2 mph - N/A   Overcast
4:55 PM 62.6 °F 46.4 °F 55% 30.05 in 10.0 mi NE 9.2 mph - N/A   Overcast
5:15 PM 62.6 °F 46.4 °F 55% 30.05 in 10.0 mi ENE 9.2 mph - N/A   Overcast
5:35 PM 62.6 °F 44.6 °F 52% 30.06 in 10.0 mi NE 10.4 mph - N/A   Overcast
5:55 PM 62.6 °F 44.6 °F 52% 30.07 in 10.0 mi NE 10.4 mph 16.1 mph N/A   Overcast
6:15 PM 60.8 °F 46.4 °F 59% 30.07 in 10.0 mi NE 8.1 mph - N/A   Overcast
6:35 PM 60.8 °F 44.6 °F 55% 30.08 in 10.0 mi ENE 10.4 mph 16.1 mph N/A   Overcast
6:55 PM 60.8 °F 44.6 °F 55% 30.08 in 10.0 mi ENE 8.1 mph 16.1 mph N/A   Overcast
7:15 PM 60.8 °F 44.6 °F 55% 30.08 in 10.0 mi ENE 9.2 mph - N/A   Overcast
7:35 PM 60.8 °F 44.6 °F 55% 30.08 in 10.0 mi NE 10.4 mph 18.4 mph N/A   Overcast
7:55 PM 60.8 °F 46.4 °F 59% 30.09 in 10.0 mi ENE 10.4 mph - N/A   Overcast
8:15 PM 60.8 °F 46.4 °F 59% 30.09 in 10.0 mi ENE 12.7 mph 20.7 mph N/A   Overcast
8:35 PM 60.8 °F 44.6 °F 55% 30.09 in 10.0 mi NE 9.2 mph - N/A   Overcast
8:55 PM 60.8 °F 44.6 °F 55% 30.10 in 10.0 mi ENE 11.5 mph - N/A   Overcast
9:15 PM 60.8 °F 46.4 °F 59% 30.10 in 10.0 mi ENE 8.1 mph 17.3 mph N/A   Overcast
9:35 PM 57.2 °F 46.4 °F 67% 30.11 in 10.0 mi ENE 6.9 mph - N/A   Overcast
9:55 PM 57.2 °F 48.2 °F 72% 30.11 in 10.0 mi ENE 4.6 mph - N/A   Overcast
10:15 PM 57.2 °F 48.2 °F 72% 30.11 in 10.0 mi NE 6.9 mph - N/A   Overcast
10:35 PM 57.2 °F 46.4 °F 67% 30.11 in 10.0 mi East 8.1 mph - N/A   Overcast
10:55 PM 57.2 °F 46.4 °F 67% 30.11 in 10.0 mi ENE 5.8 mph - N/A   Overcast
11:15 PM 57.2 °F 46.4 °F 67% 30.12 in 10.0 mi ENE 5.8 mph - N/A   Overcast
11:35 PM 57.2 °F 46.4 °F 67% 30.11 in 10.0 mi ENE 6.9 mph - N/A   Overcast
11:55 PM 57.2 °F 46.4 °F 67% 30.11 in 10.0 mi ENE 10.4 mph - N/A   Overcast